Smyre, North Carolina
Current Conditions -  °F | °C
As of 10:54 AM on Thursday 30 Oct 2014 (Local Time) from KAKH Reporting Station
Clear Clear  
Wind Chill: 63°   Ceiling: Unl
Heat Index: 63°   Visibility: 10mi
Dew Point: 40°   Wind: 10mph
Humidity: 43%   Direction: 40°NE
Pressure: 30.08"   Gusts: NA
Location:  35.2205°N, 81.2501°W
Report Text: KAKH 301454Z AUTO 04009KT 10SM CLR 17/04 A3008 RMK AO2 SLP183 T01720044 51007
Loading
Personal Weather Stations






























Interactive Weather Map
Tropical Storm Tracking
New forecast layout! Learn more

10-Day Weather Forecast

Advertisements
Track Severe Weather on mobile